sensor_id;sensor_type;location;lat;lon;timestamp;P1;durP1;ratioP1;P2;durP2;ratioP2
8268;SDS011;4174;48.304;16.364;2022-10-22T00:02:38;14.98;;;6.50;;
8268;SDS011;4174;48.304;16.364;2022-10-22T00:08:44;14.93;;;6.37;;
8268;SDS011;4174;48.304;16.364;2022-10-22T00:14:48;19.30;;;6.77;;
8268;SDS011;4174;48.304;16.364;2022-10-22T00:20:51;15.37;;;6.60;;
8268;SDS011;4174;48.304;16.364;2022-10-22T00:26:54;17.40;;;8.07;;
8268;SDS011;4174;48.304;16.364;2022-10-22T00:32:58;16.63;;;6.77;;
8268;SDS011;4174;48.304;16.364;2022-10-22T00:39:01;16.27;;;7.30;;
8268;SDS011;4174;48.304;16.364;2022-10-22T00:45:18;14.57;;;6.87;;
8268;SDS011;4174;48.304;16.364;2022-10-22T00:51:23;15.93;;;6.75;;
8268;SDS011;4174;48.304;16.364;2022-10-22T00:57:25;15.20;;;6.83;;
8268;SDS011;4174;48.304;16.364;2022-10-22T01:03:28;15.87;;;6.80;;
8268;SDS011;4174;48.304;16.364;2022-10-22T01:09:35;14.20;;;6.53;;
8268;SDS011;4174;48.304;16.364;2022-10-22T01:15:45;18.23;;;7.10;;
8268;SDS011;4174;48.304;16.364;2022-10-22T01:21:52;14.73;;;6.40;;
8268;SDS011;4174;48.304;16.364;2022-10-22T01:27:57;16.27;;;6.87;;
8268;SDS011;4174;48.304;16.364;2022-10-22T01:33:57;14.00;;;6.60;;
8268;SDS011;4174;48.304;16.364;2022-10-22T01:39:59;15.90;;;6.90;;
8268;SDS011;4174;48.304;16.364;2022-10-22T01:46:02;13.90;;;6.80;;
8268;SDS011;4174;48.304;16.364;2022-10-22T01:58:36;14.45;;;6.47;;
8268;SDS011;4174;48.304;16.364;2022-10-22T02:04:57;13.60;;;6.45;;
8268;SDS011;4174;48.304;16.364;2022-10-22T02:11:01;13.35;;;6.43;;
8268;SDS011;4174;48.304;16.364;2022-10-22T02:17:04;15.48;;;6.97;;
8268;SDS011;4174;48.304;16.364;2022-10-22T02:23:08;17.85;;;7.53;;
8268;SDS011;4174;48.304;16.364;2022-10-22T02:29:13;17.40;;;7.00;;
8268;SDS011;4174;48.304;16.364;2022-10-22T02:35:18;14.48;;;7.05;;
8268;SDS011;4174;48.304;16.364;2022-10-22T02:41:20;15.53;;;7.23;;
8268;SDS011;4174;48.304;16.364;2022-10-22T02:47:23;16.97;;;7.17;;
8268;SDS011;4174;48.304;16.364;2022-10-22T02:53:27;15.93;;;7.28;;
8268;SDS011;4174;48.304;16.364;2022-10-22T02:59:31;15.80;;;7.57;;
8268;SDS011;4174;48.304;16.364;2022-10-22T03:05:35;16.67;;;7.78;;
8268;SDS011;4174;48.304;16.364;2022-10-22T03:11:38;17.80;;;7.90;;
8268;SDS011;4174;48.304;16.364;2022-10-22T03:17:42;17.87;;;7.53;;
8268;SDS011;4174;48.304;16.364;2022-10-22T03:23:46;16.02;;;7.32;;
8268;SDS011;4174;48.304;16.364;2022-10-22T03:29:49;16.17;;;7.03;;
8268;SDS011;4174;48.304;16.364;2022-10-22T03:35:52;14.17;;;7.03;;
8268;SDS011;4174;48.304;16.364;2022-10-22T03:41:56;15.73;;;7.70;;
8268;SDS011;4174;48.304;16.364;2022-10-22T03:47:59;16.47;;;7.70;;
8268;SDS011;4174;48.304;16.364;2022-10-22T03:54:04;16.30;;;7.07;;
8268;SDS011;4174;48.304;16.364;2022-10-22T04:00:10;16.12;;;7.47;;
8268;SDS011;4174;48.304;16.364;2022-10-22T04:06:15;16.00;;;7.30;;
8268;SDS011;4174;48.304;16.364;2022-10-22T04:12:18;16.48;;;7.30;;
8268;SDS011;4174;48.304;16.364;2022-10-22T04:18:23;15.63;;;7.30;;
8268;SDS011;4174;48.304;16.364;2022-10-22T04:24:26;15.93;;;7.17;;
8268;SDS011;4174;48.304;16.364;2022-10-22T04:30:29;19.25;;;8.00;;
8268;SDS011;4174;48.304;16.364;2022-10-22T04:36:33;16.57;;;8.30;;
8268;SDS011;4174;48.304;16.364;2022-10-22T04:42:37;19.37;;;9.55;;
8268;SDS011;4174;48.304;16.364;2022-10-22T04:48:41;19.27;;;8.50;;
8268;SDS011;4174;48.304;16.364;2022-10-22T04:54:45;19.35;;;8.15;;
8268;SDS011;4174;48.304;16.364;2022-10-22T05:00:49;19.10;;;7.55;;
8268;SDS011;4174;48.304;16.364;2022-10-22T05:06:53;17.33;;;7.63;;
8268;SDS011;4174;48.304;16.364;2022-10-22T05:12:57;16.12;;;7.50;;
8268;SDS011;4174;48.304;16.364;2022-10-22T05:19:01;16.40;;;7.70;;
8268;SDS011;4174;48.304;16.364;2022-10-22T05:25:05;15.83;;;7.30;;
8268;SDS011;4174;48.304;16.364;2022-10-22T05:31:11;20.07;;;8.80;;
8268;SDS011;4174;48.304;16.364;2022-10-22T05:37:14;15.87;;;7.60;;
8268;SDS011;4174;48.304;16.364;2022-10-22T05:43:18;15.65;;;7.32;;
8268;SDS011;4174;48.304;16.364;2022-10-22T05:49:22;14.93;;;7.43;;
8268;SDS011;4174;48.304;16.364;2022-10-22T05:55:27;20.20;;;10.13;;
8268;SDS011;4174;48.304;16.364;2022-10-22T06:01:31;17.90;;;9.00;;
8268;SDS011;4174;48.304;16.364;2022-10-22T06:07:34;15.63;;;7.30;;
8268;SDS011;4174;48.304;16.364;2022-10-22T06:13:36;18.33;;;7.33;;
8268;SDS011;4174;48.304;16.364;2022-10-22T06:19:40;15.70;;;8.23;;
8268;SDS011;4174;48.304;16.364;2022-10-22T06:25:54;15.43;;;7.17;;
8268;SDS011;4174;48.304;16.364;2022-10-22T06:31:48;17.48;;;8.07;;
8268;SDS011;4174;48.304;16.364;2022-10-22T06:37:52;16.05;;;7.43;;
8268;SDS011;4174;48.304;16.364;2022-10-22T06:43:56;16.50;;;7.07;;
8268;SDS011;4174;48.304;16.364;2022-10-22T06:50:00;14.03;;;6.73;;
8268;SDS011;4174;48.304;16.364;2022-10-22T06:56:05;16.63;;;7.67;;
8268;SDS011;4174;48.304;16.364;2022-10-22T07:02:10;15.60;;;8.00;;
8268;SDS011;4174;48.304;16.364;2022-10-22T07:08:14;18.03;;;8.70;;
8268;SDS011;4174;48.304;16.364;2022-10-22T07:14:18;16.23;;;8.20;;
8268;SDS011;4174;48.304;16.364;2022-10-22T07:20:22;17.90;;;8.73;;
8268;SDS011;4174;48.304;16.364;2022-10-22T07:26:26;17.40;;;8.67;;
8268;SDS011;4174;48.304;16.364;2022-10-22T07:32:29;20.07;;;8.83;;
8268;SDS011;4174;48.304;16.364;2022-10-22T07:38:32;17.63;;;8.60;;
8268;SDS011;4174;48.304;16.364;2022-10-22T07:44:35;16.30;;;8.30;;
8268;SDS011;4174;48.304;16.364;2022-10-22T07:50:39;17.23;;;8.55;;
8268;SDS011;4174;48.304;16.364;2022-10-22T07:56:45;16.67;;;8.20;;
8268;SDS011;4174;48.304;16.364;2022-10-22T08:02:49;16.13;;;8.40;;
8268;SDS011;4174;48.304;16.364;2022-10-22T08:08:53;16.77;;;8.30;;
8268;SDS011;4174;48.304;16.364;2022-10-22T08:14:56;18.47;;;8.90;;
8268;SDS011;4174;48.304;16.364;2022-10-22T08:21:00;19.07;;;9.37;;
8268;SDS011;4174;48.304;16.364;2022-10-22T08:27:05;18.27;;;9.70;;
8268;SDS011;4174;48.304;16.364;2022-10-22T08:33:09;20.52;;;9.75;;
8268;SDS011;4174;48.304;16.364;2022-10-22T08:39:14;20.83;;;10.20;;
8268;SDS011;4174;48.304;16.364;2022-10-22T08:45:23;21.53;;;10.20;;
8268;SDS011;4174;48.304;16.364;2022-10-22T08:51:28;27.07;;;13.63;;
8268;SDS011;4174;48.304;16.364;2022-10-22T08:57:38;26.90;;;14.07;;
8268;SDS011;4174;48.304;16.364;2022-10-22T09:04:18;23.70;;;12.10;;
8268;SDS011;4174;48.304;16.364;2022-10-22T09:10:26;24.75;;;12.50;;
8268;SDS011;4174;48.304;16.364;2022-10-22T09:16:33;24.10;;;11.83;;
8268;SDS011;4174;48.304;16.364;2022-10-22T09:22:38;23.33;;;11.70;;
8268;SDS011;4174;48.304;16.364;2022-10-22T09:28:50;23.27;;;12.60;;
8268;SDS011;4174;48.304;16.364;2022-10-22T09:34:54;24.37;;;12.48;;
8268;SDS011;4174;48.304;16.364;2022-10-22T09:40:57;23.40;;;12.40;;
8268;SDS011;4174;48.304;16.364;2022-10-22T09:46:59;24.40;;;13.05;;
8268;SDS011;4174;48.304;16.364;2022-10-22T09:53:11;23.90;;;12.50;;
8268;SDS011;4174;48.304;16.364;2022-10-22T09:59:14;24.10;;;12.32;;
8268;SDS011;4174;48.304;16.364;2022-10-22T10:05:18;22.15;;;11.90;;
8268;SDS011;4174;48.304;16.364;2022-10-22T10:11:25;25.93;;;12.73;;
8268;SDS011;4174;48.304;16.364;2022-10-22T10:17:32;23.90;;;12.33;;
8268;SDS011;4174;48.304;16.364;2022-10-22T10:23:40;23.73;;;12.87;;
8268;SDS011;4174;48.304;16.364;2022-10-22T10:29:59;26.63;;;14.30;;
8268;SDS011;4174;48.304;16.364;2022-10-22T10:36:07;26.53;;;14.03;;
8268;SDS011;4174;48.304;16.364;2022-10-22T10:42:20;30.23;;;15.00;;
8268;SDS011;4174;48.304;16.364;2022-10-22T10:48:28;29.23;;;14.23;;
8268;SDS011;4174;48.304;16.364;2022-10-22T10:54:53;28.20;;;15.00;;
8268;SDS011;4174;48.304;16.364;2022-10-22T11:01:28;28.23;;;14.63;;
8268;SDS011;4174;48.304;16.364;2022-10-22T11:08:29;26.80;;;14.70;;
8268;SDS011;4174;48.304;16.364;2022-10-22T11:14:31;28.20;;;15.33;;
8268;SDS011;4174;48.304;16.364;2022-10-22T11:20:40;25.90;;;13.70;;
8268;SDS011;4174;48.304;16.364;2022-10-22T11:26:54;27.10;;;14.55;;
8268;SDS011;4174;48.304;16.364;2022-10-22T11:32:58;27.85;;;15.18;;
8268;SDS011;4174;48.304;16.364;2022-10-22T11:39:02;25.97;;;14.83;;
8268;SDS011;4174;48.304;16.364;2022-10-22T11:45:06;28.93;;;15.17;;
8268;SDS011;4174;48.304;16.364;2022-10-22T11:51:32;25.30;;;14.48;;
8268;SDS011;4174;48.304;16.364;2022-10-22T11:57:37;24.77;;;14.43;;
8268;SDS011;4174;48.304;16.364;2022-10-22T12:03:41;27.07;;;15.17;;
8268;SDS011;4174;48.304;16.364;2022-10-22T12:09:44;29.67;;;14.90;;
8268;SDS011;4174;48.304;16.364;2022-10-22T12:15:50;27.20;;;14.60;;
8268;SDS011;4174;48.304;16.364;2022-10-22T12:21:53;28.23;;;14.90;;
8268;SDS011;4174;48.304;16.364;2022-10-22T12:27:57;26.80;;;14.93;;
8268;SDS011;4174;48.304;16.364;2022-10-22T12:33:59;26.50;;;14.37;;
8268;SDS011;4174;48.304;16.364;2022-10-22T12:40:15;27.43;;;14.90;;
8268;SDS011;4174;48.304;16.364;2022-10-22T12:46:16;28.60;;;15.13;;
8268;SDS011;4174;48.304;16.364;2022-10-22T12:52:20;27.93;;;15.50;;
8268;SDS011;4174;48.304;16.364;2022-10-22T12:58:25;31.90;;;16.57;;
8268;SDS011;4174;48.304;16.364;2022-10-22T13:04:32;31.33;;;17.08;;
8268;SDS011;4174;48.304;16.364;2022-10-22T13:10:34;28.47;;;15.90;;
8268;SDS011;4174;48.304;16.364;2022-10-22T13:16:37;32.55;;;17.73;;
8268;SDS011;4174;48.304;16.364;2022-10-22T13:22:40;26.77;;;15.10;;
8268;SDS011;4174;48.304;16.364;2022-10-22T13:28:48;25.48;;;14.30;;
8268;SDS011;4174;48.304;16.364;2022-10-22T13:34:52;26.40;;;14.37;;
8268;SDS011;4174;48.304;16.364;2022-10-22T13:40:55;25.53;;;14.23;;
8268;SDS011;4174;48.304;16.364;2022-10-22T13:46:58;28.07;;;14.97;;
8268;SDS011;4174;48.304;16.364;2022-10-22T13:53:02;28.63;;;16.00;;
8268;SDS011;4174;48.304;16.364;2022-10-22T13:59:05;31.67;;;16.87;;
8268;SDS011;4174;48.304;16.364;2022-10-22T14:05:08;33.07;;;17.93;;
8268;SDS011;4174;48.304;16.364;2022-10-22T14:11:11;36.77;;;19.13;;
8268;SDS011;4174;48.304;16.364;2022-10-22T14:17:15;32.03;;;17.17;;
8268;SDS011;4174;48.304;16.364;2022-10-22T14:23:19;31.90;;;17.43;;
8268;SDS011;4174;48.304;16.364;2022-10-22T14:29:21;27.57;;;15.60;;
8268;SDS011;4174;48.304;16.364;2022-10-22T14:35:25;27.23;;;15.52;;
8268;SDS011;4174;48.304;16.364;2022-10-22T14:41:28;30.13;;;14.97;;
8268;SDS011;4174;48.304;16.364;2022-10-22T14:47:32;27.45;;;15.02;;
8268;SDS011;4174;48.304;16.364;2022-10-22T14:53:36;27.37;;;15.23;;
8268;SDS011;4174;48.304;16.364;2022-10-22T14:59:40;26.55;;;14.68;;
8268;SDS011;4174;48.304;16.364;2022-10-22T15:05:45;24.63;;;14.48;;
8268;SDS011;4174;48.304;16.364;2022-10-22T15:11:49;31.45;;;17.15;;
8268;SDS011;4174;48.304;16.364;2022-10-22T15:17:51;32.22;;;17.48;;
8268;SDS011;4174;48.304;16.364;2022-10-22T15:23:56;34.60;;;18.87;;
8268;SDS011;4174;48.304;16.364;2022-10-22T15:30:00;29.90;;;15.75;;
8268;SDS011;4174;48.304;16.364;2022-10-22T15:36:09;31.23;;;16.53;;
8268;SDS011;4174;48.304;16.364;2022-10-22T15:42:12;28.30;;;15.60;;
8268;SDS011;4174;48.304;16.364;2022-10-22T15:48:15;28.13;;;15.43;;
8268;SDS011;4174;48.304;16.364;2022-10-22T15:54:22;28.02;;;15.18;;
8268;SDS011;4174;48.304;16.364;2022-10-22T16:00:24;31.60;;;17.17;;
8268;SDS011;4174;48.304;16.364;2022-10-22T16:06:29;30.23;;;17.27;;
8268;SDS011;4174;48.304;16.364;2022-10-22T16:12:31;33.15;;;18.02;;
8268;SDS011;4174;48.304;16.364;2022-10-22T16:18:34;35.50;;;19.23;;
8268;SDS011;4174;48.304;16.364;2022-10-22T16:24:38;33.17;;;18.20;;
8268;SDS011;4174;48.304;16.364;2022-10-22T16:30:42;17.90;;;9.27;;
8268;SDS011;4174;48.304;16.364;2022-10-22T16:36:45;11.60;;;5.00;;
8268;SDS011;4174;48.304;16.364;2022-10-22T16:42:49;8.88;;;4.05;;
8268;SDS011;4174;48.304;16.364;2022-10-22T16:48:54;7.80;;;3.70;;
8268;SDS011;4174;48.304;16.364;2022-10-22T16:54:57;8.77;;;3.73;;
8268;SDS011;4174;48.304;16.364;2022-10-22T17:01:04;8.07;;;3.70;;
8268;SDS011;4174;48.304;16.364;2022-10-22T17:07:06;8.97;;;4.80;;
8268;SDS011;4174;48.304;16.364;2022-10-22T17:13:10;10.40;;;5.03;;
8268;SDS011;4174;48.304;16.364;2022-10-22T17:19:15;9.80;;;4.80;;
8268;SDS011;4174;48.304;16.364;2022-10-22T17:25:20;9.90;;;5.00;;
8268;SDS011;4174;48.304;16.364;2022-10-22T17:31:23;11.45;;;5.43;;
8268;SDS011;4174;48.304;16.364;2022-10-22T17:37:25;11.30;;;5.67;;
8268;SDS011;4174;48.304;16.364;2022-10-22T17:43:29;11.53;;;5.77;;
8268;SDS011;4174;48.304;16.364;2022-10-22T17:49:33;12.23;;;6.07;;
8268;SDS011;4174;48.304;16.364;2022-10-22T17:55:37;12.82;;;5.72;;
8268;SDS011;4174;48.304;16.364;2022-10-22T18:01:40;12.18;;;5.90;;
8268;SDS011;4174;48.304;16.364;2022-10-22T18:07:46;12.33;;;5.97;;
8268;SDS011;4174;48.304;16.364;2022-10-22T18:13:50;12.33;;;6.03;;
8268;SDS011;4174;48.304;16.364;2022-10-22T18:19:52;11.67;;;6.00;;
8268;SDS011;4174;48.304;16.364;2022-10-22T18:25:56;11.77;;;6.10;;
8268;SDS011;4174;48.304;16.364;2022-10-22T18:31:59;13.50;;;6.47;;
8268;SDS011;4174;48.304;16.364;2022-10-22T18:38:03;12.70;;;6.70;;
8268;SDS011;4174;48.304;16.364;2022-10-22T18:44:07;13.32;;;7.57;;
8268;SDS011;4174;48.304;16.364;2022-10-22T18:50:09;14.37;;;6.53;;
8268;SDS011;4174;48.304;16.364;2022-10-22T18:56:14;12.63;;;6.30;;
8268;SDS011;4174;48.304;16.364;2022-10-22T19:02:18;11.70;;;6.18;;
8268;SDS011;4174;48.304;16.364;2022-10-22T19:08:23;11.98;;;6.12;;
8268;SDS011;4174;48.304;16.364;2022-10-22T19:14:27;12.55;;;6.07;;
8268;SDS011;4174;48.304;16.364;2022-10-22T19:20:31;10.90;;;5.80;;
8268;SDS011;4174;48.304;16.364;2022-10-22T19:26:34;11.27;;;5.63;;
8268;SDS011;4174;48.304;16.364;2022-10-22T19:32:39;10.00;;;5.53;;
8268;SDS011;4174;48.304;16.364;2022-10-22T19:38:45;10.15;;;5.37;;
8268;SDS011;4174;48.304;16.364;2022-10-22T19:44:46;10.85;;;5.00;;
8268;SDS011;4174;48.304;16.364;2022-10-22T19:50:56;10.13;;;5.00;;
8268;SDS011;4174;48.304;16.364;2022-10-22T19:56:53;11.37;;;5.00;;
8268;SDS011;4174;48.304;16.364;2022-10-22T20:02:58;11.03;;;4.80;;
8268;SDS011;4174;48.304;16.364;2022-10-22T20:09:02;11.07;;;4.80;;
8268;SDS011;4174;48.304;16.364;2022-10-22T20:15:06;10.52;;;4.53;;
8268;SDS011;4174;48.304;16.364;2022-10-22T20:21:12;10.43;;;4.30;;
8268;SDS011;4174;48.304;16.364;2022-10-22T20:27:14;9.73;;;4.10;;
8268;SDS011;4174;48.304;16.364;2022-10-22T20:33:19;8.80;;;3.90;;
8268;SDS011;4174;48.304;16.364;2022-10-22T20:39:23;7.82;;;3.20;;
8268;SDS011;4174;48.304;16.364;2022-10-22T20:45:27;7.27;;;3.20;;
8268;SDS011;4174;48.304;16.364;2022-10-22T20:51:31;7.30;;;3.30;;
8268;SDS011;4174;48.304;16.364;2022-10-22T20:57:35;8.73;;;3.45;;
8268;SDS011;4174;48.304;16.364;2022-10-22T21:03:39;7.27;;;3.20;;
8268;SDS011;4174;48.304;16.364;2022-10-22T21:09:45;8.02;;;3.10;;
8268;SDS011;4174;48.304;16.364;2022-10-22T21:15:49;8.07;;;3.00;;
8268;SDS011;4174;48.304;16.364;2022-10-22T21:21:52;7.30;;;2.80;;
8268;SDS011;4174;48.304;16.364;2022-10-22T21:27:56;8.43;;;2.80;;
8268;SDS011;4174;48.304;16.364;2022-10-22T21:33:59;7.30;;;2.60;;
8268;SDS011;4174;48.304;16.364;2022-10-22T21:40:04;6.57;;;2.40;;
8268;SDS011;4174;48.304;16.364;2022-10-22T21:46:14;6.40;;;2.40;;
8268;SDS011;4174;48.304;16.364;2022-10-22T21:52:15;5.40;;;2.33;;
8268;SDS011;4174;48.304;16.364;2022-10-22T21:58:19;5.82;;;2.30;;
8268;SDS011;4174;48.304;16.364;2022-10-22T22:04:23;5.78;;;2.20;;
8268;SDS011;4174;48.304;16.364;2022-10-22T22:10:26;6.37;;;2.23;;
8268;SDS011;4174;48.304;16.364;2022-10-22T22:16:30;6.68;;;2.20;;
8268;SDS011;4174;48.304;16.364;2022-10-22T22:22:32;5.87;;;2.40;;
8268;SDS011;4174;48.304;16.364;2022-10-22T22:28:36;7.30;;;2.53;;
8268;SDS011;4174;48.304;16.364;2022-10-22T22:34:39;7.07;;;2.33;;
8268;SDS011;4174;48.304;16.364;2022-10-22T22:40:44;6.53;;;2.53;;
8268;SDS011;4174;48.304;16.364;2022-10-22T22:46:48;5.78;;;2.45;;
8268;SDS011;4174;48.304;16.364;2022-10-22T22:52:52;5.50;;;2.40;;
8268;SDS011;4174;48.304;16.364;2022-10-22T22:58:59;6.30;;;2.28;;
8268;SDS011;4174;48.304;16.364;2022-10-22T23:05:02;6.20;;;2.40;;
8268;SDS011;4174;48.304;16.364;2022-10-22T23:11:08;6.65;;;2.40;;
8268;SDS011;4174;48.304;16.364;2022-10-22T23:17:11;6.63;;;2.30;;
8268;SDS011;4174;48.304;16.364;2022-10-22T23:23:15;7.53;;;2.83;;
8268;SDS011;4174;48.304;16.364;2022-10-22T23:29:21;8.90;;;2.40;;
8268;SDS011;4174;48.304;16.364;2022-10-22T23:35:25;6.00;;;2.50;;
8268;SDS011;4174;48.304;16.364;2022-10-22T23:41:28;7.30;;;2.57;;
8268;SDS011;4174;48.304;16.364;2022-10-22T23:47:32;6.28;;;2.58;;
8268;SDS011;4174;48.304;16.364;2022-10-22T23:53:36;6.37;;;2.87;;
8268;SDS011;4174;48.304;16.364;2022-10-22T23:59:39;6.37;;;2.80;;
